Latest Weather Observations for Kowanyama

IDQ60801

Issued at 9:02 am EST Thursday 27 April 2017 (issued every 30 minutes, with the page automatically refreshed every 10 minutes)

About weather observations | Map of weather stations | Latest weather observations for QLD | Other Formats
Station Details ID: 029038 Name: KOWANYAMA AIRPORT Lat: -15.48 Lon: 141.75 Height: 9.6 m
Data from the previous 72 hours. | See also: Recent months at Kowanyama
Date/Time
EST
Temp
°C
App
Temp
°C
Dew
Point
°C
Rel
Hum
%
Delta-T
°C
Wind Press
QNH
hPa
Press
MSL
hPa
Rain since
9am
mm
Dir  Spd
km/h
Gust
km/h
Spd
kts
Gust
kts
27/09:00am 26.8 23.8 12.5 41 8.3 SSE 20 32 11 17 1013.6 1013.5 0.0
27/08:30am 26.9 25.7 16.2 52 6.6 SSE 17 20 9 11 1013.4 1013.3 0.0
27/08:00am 24.9 25.4 17.4 63 4.7 SSE 11 15 6 8 1013.1 1013.0 0.0
27/07:30am 23.4 25.7 19.8 80 2.3 SSE 7 9 4 5 1012.9 1012.8 0.0
27/07:00am 22.6 26.2 19.8 84 1.8 CALM 0 4 0 2 1012.4 1012.3 0.0
27/06:30am 23.3 25.9 20.1 82 2.1 SE 6 7 3 4 1011.8 1011.7 0.0
27/06:00am 23.4 25.5 20.2 82 2.1 SE 9 11 5 6 1011.4 1011.3 0.0
27/05:30am 23.3 25.8 20.2 83 2.0 ENE 7 11 4 6 1011.4 1011.3 0.0
27/05:00am 24.2 26.6 20.1 78 2.7 ESE 7 9 4 5 1011.4 1011.3 0.0
27/04:30am 24.2 26.1 20.5 80 2.4 S 11 15 6 8 1011.2 1011.1 0.0
27/04:00am 24.4 27.2 20.9 81 2.3 S 7 9 4 5 1010.9 1010.8 0.0
27/03:30am 24.5 27.7 21.2 82 2.2 S 6 9 3 5 1011.1 1011.0 0.0
27/03:00am 24.9 28.1 21.2 80 2.4 SE 6 7 3 4 1011.0 1010.9 0.0
27/02:30am 25.0 28.0 21.3 80 2.4 SSE 7 9 4 5 1011.4 1011.3 0.0
27/02:00am 24.9 27.7 21.6 82 2.2 SSE 9 11 5 6 1011.7 1011.6 0.0
27/01:30am 24.7 28.1 22.0 85 1.8 SSE 7 7 4 4 1011.9 1011.8 0.0
27/01:00am 24.6 28.1 21.9 85 1.8 S 6 7 3 4 1012.3 1012.2 0.0
27/12:30am 24.7 28.1 21.6 83 2.1 S 6 6 3 3 1012.6 1012.5 0.0
27/12:00am 25.0 28.4 21.7 82 2.2 S 6 7 3 4 1012.8 1012.7 0.0
 
Date/Time
EST
Temp
°C
App
Temp
°C
Dew
Point
°C
Rel
Hum
%
Delta-T
°C
Wind Press
QNH
hPa
Press
MSL
hPa
Rain since
9am
mm
Dir  Spd
km/h
Gust
km/h
Spd
kts
Gust
kts
26/11:30pm 25.3 28.7 21.6 80 2.5 SSW 6 7 3 4 1012.9 1012.8 0.0
26/11:00pm 25.3 28.7 21.6 80 2.5 S 6 7 3 4 1012.9 1012.8 0.0
26/10:30pm 25.4 28.6 21.7 80 2.5 S 7 11 4 6 1012.9 1012.8 0.0
26/10:00pm 25.7 28.2 21.8 79 2.6 SSW 11 13 6 7 1013.0 1012.9 0.0
26/09:30pm 25.8 28.8 21.9 79 2.6 S 9 13 5 7 1012.9 1012.8 0.0
26/09:00pm 25.9 28.9 22.0 79 2.6 SSW 9 15 5 8 1012.8 1012.7 0.0
26/08:30pm 26.3 29.5 21.7 76 3.1 SW 7 11 4 6 1012.5 1012.4 0.0
26/08:00pm 26.4 28.8 21.6 75 3.2 WSW 11 15 6 8 1012.2 1012.1 0.0
26/07:30pm 26.0 29.3 21.4 76 3.1 NW 6 11 3 6 1011.8 1011.7 0.0
26/07:00pm 26.7 30.8 20.8 70 3.9 CALM 0 0 0 0 1011.4 1011.3 0.0
26/06:30pm 28.0 31.9 20.3 63 5.1 CALM 0 0 0 0 1011.0 1010.9 0.0
26/06:00pm 30.1 33.5 20.1 55 6.6 ESE 2 6 1 3 1010.4 1010.3 0.0
26/05:30pm 32.4 33.2 18.2 42 9.2 ESE 11 15 6 8 1009.8 1009.7 0.0
26/05:00pm 33.1 33.5 18.1 41 9.7 SE 13 19 7 10 1009.6 1009.5 0.0
26/04:30pm 33.4 33.9 18.3 40 9.8 ESE 13 19 7 10 1009.4 1009.3 0.0
26/04:00pm 33.2 33.6 18.9 42 9.4 ESE 15 24 8 13 1009.3 1009.2 0.0
26/03:30pm 33.6 34.3 18.9 41 9.6 ESE 13 19 7 10 1009.4 1009.3 0.0
26/03:00pm 33.4 33.5 19.1 42 9.4 SE 17 24 9 13 1009.8 1009.7 0.0
26/02:30pm 33.1 33.6 19.2 43 9.1 E 15 20 8 11 1010.2 1010.1 0.0
26/02:00pm 33.5 34.6 19.6 44 9.2 ESE 13 20 7 11 1010.4 1010.3 0.0
26/01:30pm 32.7 33.8 19.6 46 8.6 ESE 13 22 7 12 1010.7 1010.6 0.0
26/01:00pm 32.2 32.6 19.8 48 8.2 ESE 17 24 9 13 1011.1 1011.0 0.0
26/12:30pm 32.1 33.2 20.4 50 7.8 SE 15 20 8 11 1011.6 1011.5 0.0
26/12:00pm 31.8 33.6 20.4 51 7.6 E 11 19 6 10 1012.1 1012.0 0.0
26/11:30am 30.6 31.4 19.9 52 7.0 E 15 24 8 13 1012.4 1012.3 0.0
26/11:00am 29.5 31.2 20.9 60 5.7 E 13 17 7 9 1013.1 1013.0 0.0
26/10:30am 29.8 32.0 21.2 60 5.7 ENE 11 19 6 10 1013.4 1013.3 0.0
26/10:00am 29.5 32.1 21.2 61 5.5 ENE 9 15 5 8 1013.6 1013.5 0.0
26/09:30am 27.8 29.0 20.6 65 4.7 E 15 20 8 11 1013.7 1013.6 0.0
26/09:00am 27.1 28.9 21.2 70 3.9 E 13 19 7 10 1013.7 1013.6 0.0
26/08:30am 25.8 28.4 21.2 76 3.0 ENE 9 15 5 8 1013.5 1013.4 0.0
26/08:00am 24.9 27.9 21.2 80 2.4 E 7 13 4 7 1013.4 1013.3 0.0
26/07:30am 24.1 26.9 20.8 82 2.2 E 7 11 4 6 1013.3 1013.2 0.0
26/07:00am 23.5 26.2 20.6 84 1.9 E 7 9 4 5 1012.8 1012.7 0.0
26/06:30am 23.5 26.3 20.8 85 1.8 ENE 7 9 4 5 1012.4 1012.3 0.0
26/06:00am 23.5 26.5 21.2 87 1.5 ENE 7 11 4 6 1012.0 1011.9 0.0
26/05:30am 23.3 27.7 21.4 89 1.3 CALM 0 0 0 0 1011.8 1011.7 0.0
26/05:00am 23.5 27.2 21.4 88 1.4 NE 4 7 2 4 1011.6 1011.5 0.0
26/04:30am 23.9 27.3 21.6 87 1.5 E 6 9 3 5 1011.4 1011.3 0.0
26/04:00am 24.1 28.6 21.6 86 1.7 CALM 0 0 0 0 1011.2 1011.1 0.0
26/03:30am 24.4 27.6 21.7 85 1.8 SE 7 9 4 5 1011.2 1011.1 0.0
26/03:00am 24.8 28.1 21.5 82 2.2 NNE 6 7 3 4 1011.4 1011.3 0.0
26/02:30am 24.8 28.3 21.9 84 1.9 NE 6 7 3 4 1011.7 1011.6 0.0
26/02:00am 24.7 28.2 21.8 84 1.9 ENE 6 9 3 5 1011.8 1011.7 0.0
26/01:30am 24.5 27.9 22.0 86 1.7 E 7 9 4 5 1012.0 1011.9 0.0
26/01:00am 24.5 28.3 22.4 88 1.4 E 6 7 3 4 1012.1 1012.0 0.0
26/12:30am 24.1 27.5 22.0 88 1.4 E 7 9 4 5 1012.3 1012.2 0.0
26/12:00am 24.5 29.3 22.2 87 1.5 CALM 0 0 0 0 1012.5 1012.4 0.0
 
Date/Time
EST
Temp
°C
App
Temp
°C
Dew
Point
°C
Rel
Hum
%
Delta-T
°C
Wind Press
QNH
hPa
Press
MSL
hPa
Rain since
9am
mm
Dir  Spd
km/h
Gust
km/h
Spd
kts
Gust
kts
25/11:30pm 24.8 29.7 22.3 86 1.7 CALM 0 0 0 0 1012.5 1012.4 0.0
25/11:00pm 24.8 29.8 22.5 87 1.5 CALM 0 0 0 0 1012.6 1012.5 0.0
25/10:30pm 24.9 29.7 22.2 85 1.8 CALM 0 0 0 0 1012.8 1012.7 0.0
25/10:00pm 25.0 29.9 22.3 85 1.8 CALM 0 0 0 0 1012.9 1012.8 0.0
25/09:30pm 25.3 29.8 21.6 80 2.5 CALM 0 0 0 0 1012.9 1012.8 0.0
25/09:00pm 25.6 30.5 22.3 82 2.2 CALM 0 0 0 0 1012.7 1012.6 0.0
25/08:30pm 26.2 30.4 21.8 77 2.9 SW 2 6 1 3 1012.4 1012.3 0.0
25/08:00pm 26.7 30.9 21.7 74 3.3 W 2 6 1 3 1012.0 1011.9 0.0
25/07:30pm 26.7 29.2 21.7 74 3.3 W 11 15 6 8 1011.6 1011.5 0.0
25/07:00pm 27.1 31.2 20.7 68 4.2 CALM 0 0 0 0 1011.2 1011.1 0.0
25/06:30pm 28.0 30.7 20.3 63 5.1 ESE 6 6 3 3 1010.9 1010.8 0.0
25/06:00pm 30.0 32.2 19.1 52 7.1 ESE 6 7 3 4 1010.4 1010.3 0.0
25/05:30pm 31.6 32.8 18.2 44 8.6 ESE 9 11 5 6 1010.1 1010.0 0.0
25/05:00pm 32.5 33.2 17.9 41 9.4 SE 11 15 6 8 1009.8 1009.7 0.0
25/04:30pm 32.9 33.8 18.3 42 9.5 SE 11 15 6 8 1009.8 1009.7 0.0
25/04:00pm 32.9 34.1 19.0 43 9.1 ESE 11 17 6 9 1009.7 1009.6 0.0
25/03:30pm 33.1 34.7 19.2 43 9.1 E 9 15 5 8 1009.9 1009.8 0.0
25/03:00pm 32.5 34.3 18.7 44 9.0 ESE 7 13 4 7 1010.1 1010.0 0.0
25/02:30pm 32.5 33.5 18.7 44 9.0 ESE 11 13 6 7 1010.5 1010.4 0.0
25/02:00pm 32.7 33.0 18.8 43 9.1 SE 15 20 8 11 1010.8 1010.7 0.0
25/01:30pm 32.7 32.5 18.5 43 9.2 ESE 17 26 9 14 1011.1 1011.0 0.0
25/01:00pm 32.4 32.4 18.2 42 9.2 ESE 15 22 8 12 1011.6 1011.5 0.0
25/12:30pm 32.3 32.6 18.8 44 8.8 ESE 15 24 8 13 1011.9 1011.8 0.0
25/12:00pm 31.1 31.5 18.1 46 8.4 ESE 13 20 7 11 1012.4 1012.3 0.0
25/11:30am 31.9 33.2 20.2 50 7.8 ESE 13 20 7 11 1012.8 1012.7 0.0
25/11:00am 30.4 31.3 20.0 53 6.8 E 15 20 8 11 1013.4 1013.3 0.0
25/10:30am 29.9 31.4 20.5 57 6.2 ENE 13 20 7 11 1013.9 1013.8 0.0
25/10:00am 28.9 30.3 20.4 60 5.6 E 13 22 7 12 1013.9 1013.8 0.0
25/09:30am 27.8 28.6 19.8 61 5.2 E 15 30 8 16 1013.7 1013.6 0.0
25/09:00am 26.9 26.9 19.8 65 4.6 E 19 28 10 15 1013.6 1013.5 0.0
25/08:30am 26.2 28.0 20.3 70 3.9 E 11 19 6 10 1013.4 1013.3 0.0
25/08:00am 24.2 25.7 19.7 76 2.9 E 11 19 6 10 1013.3 1013.2 0.0
25/07:30am 23.2 25.3 19.4 79 2.4 E 7 11 4 6 1013.1 1013.0 0.0
25/07:00am 22.3 24.3 19.1 82 2.0 E 7 9 4 5 1012.9 1012.8 0.0
25/06:30am 22.5 24.5 19.1 81 2.2 ESE 7 9 4 5 1012.6 1012.5 0.0
25/06:00am 22.3 24.4 18.9 81 2.1 ESE 6 9 3 5 1012.2 1012.1 0.0
25/05:30am 22.6 24.7 19.0 80 2.3 E 6 7 3 4 1012.0 1011.9 0.0
25/05:00am 22.7 24.8 18.9 79 2.4 E 6 7 3 4 1011.6 1011.5 0.0
25/04:30am 23.0 24.9 19.0 78 2.5 E 7 9 4 5 1011.5 1011.4 0.0
25/04:00am 23.2 25.2 19.2 78 2.5 E 7 11 4 6 1011.4 1011.3 0.0
25/03:30am 23.4 25.5 19.3 78 2.6 E 7 11 4 6 1011.3 1011.2 0.0
25/03:00am 23.7 25.7 19.2 76 2.9 E 7 9 4 5 1011.3 1011.2 0.0
25/02:30am 24.1 26.2 19.4 75 3.0 E 7 9 4 5 1011.6 1011.5 0.0
25/02:00am 24.3 26.6 19.8 76 2.9 ENE 7 11 4 6 1011.8 1011.7 0.0
25/01:30am 24.5 26.5 20.0 76 2.9 E 9 11 5 6 1012.0 1011.9 0.0
25/01:00am 24.6 27.2 20.5 78 2.7 ENE 7 9 4 5 1012.1 1012.0 0.0
25/12:30am 24.8 27.7 21.1 80 2.4 E 7 9 4 5 1012.3 1012.2 0.0
25/12:00am 24.9 28.1 21.6 82 2.2 E 7 9 4 5 1012.5 1012.4 0.0
 
Date/Time
EST
Temp
°C
App
Temp
°C
Dew
Point
°C
Rel
Hum
%
Delta-T
°C
Wind Press
QNH
hPa
Press
MSL
hPa
Rain since
9am
mm
Dir  Spd
km/h
Gust
km/h
Spd
kts
Gust
kts
24/11:53pm 24.6 28.0 21.7 84 1.9 E 6 7 3 4 1012.5 1012.4 0.0
24/11:34pm 24.0 28.6 21.7 87 1.5 CALM 0 2 0 1 1012.6 1012.5 0.0
24/11:30pm 24.1 28.6 21.6 86 1.7 CALM 0 6 0 3 1012.6 1012.5 0.0
24/11:00pm 24.7 29.2 22.2 86 1.7 ENE 2 6 1 3 1012.7 1012.6 0.0
24/10:30pm 24.7 29.5 22.2 86 1.7 CALM 0 0 0 0 1012.9 1012.8 0.0
24/10:00pm 24.9 29.7 22.2 85 1.8 CALM 0 0 0 0 1012.9 1012.8 0.0
24/09:30pm 25.1 29.8 22.0 83 2.1 CALM 0 0 0 0 1012.9 1012.8 0.0
24/09:00pm 25.4 30.0 21.7 80 2.5 CALM 0 6 0 3 1012.7 1012.6 0.0
24/08:30pm 25.8 29.3 21.9 79 2.6 E 6 6 3 3 1012.4 1012.3 0.0
24/08:00pm 25.8 29.0 21.2 76 3.0 ENE 6 7 3 4 1011.8 1011.7 0.0
24/07:30pm 26.2 30.6 21.4 75 3.2 CALM 0 6 0 3 1011.4 1011.3 0.0
24/07:00pm 27.4 30.7 21.4 70 4.0 ESE 6 9 3 5 1011.2 1011.1 0.0
24/06:30pm 29.0 32.1 21.0 62 5.3 SE 6 7 3 4 1011.0 1010.9 0.0
24/06:00pm 30.0 32.5 20.3 56 6.4 ESE 7 9 4 5 1010.7 1010.6 0.0
24/05:30pm 31.0 32.7 19.4 50 7.6 E 9 11 5 6 1010.5 1010.4 0.0
24/05:00pm 31.8 33.0 19.1 47 8.3 ESE 11 13 6 7 1010.4 1010.3 0.0
24/04:30pm 32.0 33.4 18.6 45 8.7 E 9 13 5 7 1010.3 1010.2 0.0
24/04:00pm 32.2 33.4 19.1 45 8.6 E 11 17 6 9 1010.4 1010.3 0.0
24/03:30pm 32.8 34.5 19.3 45 8.9 ENE 9 15 5 8 1010.5 1010.4 0.0
24/03:00pm 32.8 33.8 18.6 43 9.2 ENE 11 19 6 10 1010.6 1010.5 0.0
24/02:30pm 32.4 33.9 18.9 44 8.8 E 9 13 5 7 1010.8 1010.7 0.0
24/02:00pm 32.6 33.3 18.8 44 9.0 ESE 13 20 7 11 1011.1 1011.0 0.0
24/01:30pm 32.2 32.6 19.1 45 8.6 E 15 20 8 11 1011.5 1011.4 0.0
24/01:00pm 31.7 32.7 18.7 46 8.4 E 11 22 6 12 1011.8 1011.7 0.0
24/12:30pm 31.6 32.7 19.6 49 7.9 ESE 13 22 7 12 1012.3 1012.2 0.0
24/12:00pm 31.6 32.8 19.9 50 7.7 ENE 13 17 7 9 1012.8 1012.7 0.0
24/11:30am 30.2 30.9 18.9 50 7.3 E 13 20 7 11 1013.3 1013.2 0.0
24/11:00am 29.1 29.8 18.8 53 6.6 ESE 13 20 7 11 1013.6 1013.5 0.0
24/10:30am 29.0 29.5 19.3 55 6.3 E 15 22 8 12 1013.9 1013.8 0.0
24/10:00am 28.1 28.4 19.6 60 5.5 E 17 24 9 13 1014.1 1014.0 0.0
24/09:30am 27.2 28.1 19.3 62 5.1 E 13 22 7 12 1014.1 1014.0 0.0

Other Formats:

Comma delimited format used in spreadsheet applications
http://www.bom.gov.au/fwo/IDQ60801/IDQ60801.94268.axf

JavaScript Object Notation format (JSON) in row-major order
http://www.bom.gov.au/fwo/IDQ60801/IDQ60801.94268.json